Time;durP1;ratioP1;P1;durP2;ratioP2;P2;SDS_P1;SDS_P2;PMS_P1;PMS_P2;Temp;Humidity;BMP_temperature;BMP_pressure;BME280_temperature;BME280_humidity;BME280_pressure;Samples;Min_cycle;Max_cycle;Signal;HPM_P1;HPM_P2
2023/08/20 00:01:23;;;;;;;;;;;24.60;58.60;;;;;;1571999;74;679;-53
2023/08/20 00:03:25;;;;;;;;;;;24.60;58.60;;;;;;1567638;74;707;-55
2023/08/20 00:05:27;;;;;;;;;;;24.60;58.60;;;;;;1563214;74;1526;-56
2023/08/20 00:07:29;;;;;;;;;;;24.60;58.80;;;;;;1563363;74;756;-56
2023/08/20 00:09:32;;;;;;;;;;;24.60;58.90;;;;;;1565501;74;1147;-56
2023/08/20 00:11:34;;;;;;;;;;;24.60;59.30;;;;;;1562510;74;782;-56
2023/08/20 00:13:36;;;;;;;;;;;24.60;59.30;;;;;;1561971;74;1946;-55
2023/08/20 00:15:38;;;;;;;;;;;24.70;59.50;;;;;;1557240;74;688;-55
2023/08/20 00:17:41;;;;;;;;;;;24.60;59.60;;;;;;1570919;74;756;-54
2023/08/20 00:19:43;;;;;;;;;;;24.70;59.90;;;;;;1567216;74;1479;-56
2023/08/20 00:21:45;;;;;;;;;;;24.60;60.10;;;;;;1561089;75;765;-56
2023/08/20 00:23:47;;;;;;;;;;;24.60;60.10;;;;;;1557999;74;744;-54
2023/08/20 00:25:49;;;;;;;;;;;24.60;60.30;;;;;;1561724;74;787;-55
2023/08/20 00:27:51;;;;;;;;;;;24.60;60.10;;;;;;1567311;74;723;-56
2023/08/20 00:29:53;;;;;;;;;;;24.70;60.30;;;;;;1560903;74;1148;-56
2023/08/20 00:31:55;;;;;;;;;;;24.60;60.70;;;;;;1565643;75;617;-54
2023/08/20 00:33:56;;;;;;;;;;;24.70;61.00;;;;;;1559712;74;1937;-53
2023/08/20 00:35:58;;;;;;;;;;;24.60;60.80;;;;;;1567343;74;789;-57
2023/08/20 00:38:00;;;;;;;;;;;24.60;60.70;;;;;;1560635;74;767;-55
2023/08/20 00:40:04;;;;;;;;;;;24.70;61.00;;;;;;1561239;74;1133;-55
2023/08/20 00:42:07;;;;;;;;;;;24.60;60.70;;;;;;1567381;75;1658;-57
2023/08/20 00:44:09;;;;;;;;;;;24.70;60.60;;;;;;1566391;75;839;-57
2023/08/20 00:46:10;;;;;;;;;;;24.60;60.90;;;;;;1565725;74;723;-57
2023/08/20 00:48:12;;;;;;;;;;;24.60;60.80;;;;;;1575973;74;1527;-56
2023/08/20 00:50:14;;;;;;;;;;;24.70;60.80;;;;;;1569067;74;1110;-57
2023/08/20 00:52:17;;;;;;;;;;;24.60;60.60;;;;;;1562395;74;881;-57
2023/08/20 00:54:19;;;;;;;;;;;24.70;60.70;;;;;;1561744;74;1910;-55
2023/08/20 00:56:21;;;;;;;;;;;24.60;60.80;;;;;;1566006;74;735;-57
2023/08/20 00:58:23;;;;;;;;;;;24.70;60.80;;;;;;1569906;74;727;-54
2023/08/20 01:00:25;;;;;;;;;;;24.60;60.80;;;;;;1567421;74;1106;-54
2023/08/20 01:02:27;;;;;;;;;;;24.60;60.90;;;;;;1567471;74;1501;-56
2023/08/20 01:04:31;;;;;;;;;;;24.60;61.20;;;;;;1568382;74;664;-55
2023/08/20 01:06:34;;;;;;;;;;;24.60;61.00;;;;;;1569004;74;960;-53
2023/08/20 01:08:38;;;;;;;;;;;24.60;60.80;;;;;;1568539;74;1896;-57
2023/08/20 01:10:49;;;;;;;;;;;24.60;60.70;;;;;;1567153;74;1625;-57
2023/08/20 01:12:50;;;;;;;;;;;24.60;60.70;;;;;;1555111;74;1723;-53
2023/08/20 01:14:52;;;;;;;;;;;24.60;60.60;;;;;;1560459;74;1950;-56
2023/08/20 01:16:54;;;;;;;;;;;24.60;60.50;;;;;;1557589;74;1586;-55
2023/08/20 01:18:56;;;;;;;;;;;24.60;60.50;;;;;;1529933;78;1117;-57
2023/08/20 01:20:59;;;;;;;;;;;24.60;60.40;;;;;;1568138;74;684;-56
2023/08/20 01:23:03;;;;;;;;;;;24.60;60.20;;;;;;1558711;74;686;-57
2023/08/20 01:25:25;;;;;;;;;;;24.60;60.10;;;;;;1561305;74;803;-56
2023/08/20 01:27:28;;;;;;;;;;;24.60;60.00;;;;;;1574848;74;718;-56
2023/08/20 01:29:30;;;;;;;;;;;24.60;60.00;;;;;;1570599;74;1461;-54
2023/08/20 01:31:32;;;;;;;;;;;24.60;59.90;;;;;;1565756;75;742;-57
2023/08/20 01:33:34;;;;;;;;;;;24.70;60.00;;;;;;1561125;75;1927;-55
2023/08/20 01:35:36;;;;;;;;;;;24.60;59.90;;;;;;1565340;74;776;-57
2023/08/20 01:37:38;;;;;;;;;;;24.60;59.80;;;;;;1567174;74;790;-56
2023/08/20 01:39:40;;;;;;;;;;;24.50;59.80;;;;;;1554835;74;1149;-56
2023/08/20 01:41:42;;;;;;;;;;;24.50;59.80;;;;;;1529824;76;716;-56
2023/08/20 01:43:43;;;;;;;;;;;24.60;59.70;;;;;;1555169;75;1579;-54
2023/08/20 01:45:46;;;;;;;;;;;24.50;59.90;;;;;;1551398;75;822;-55
2023/08/20 01:47:48;;;;;;;;;;;24.60;59.80;;;;;;1569589;74;661;-53
2023/08/20 01:49:49;;;;;;;;;;;24.50;59.80;;;;;;1578911;74;1127;-57
2023/08/20 01:51:51;;;;;;;;;;;24.60;59.80;;;;;;1563440;74;682;-57
2023/08/20 01:53:53;;;;;;;;;;;24.60;59.70;;;;;;1529446;76;1941;-55
2023/08/20 01:55:55;;;;;;;;;;;24.50;59.60;;;;;;1564657;74;716;-53
2023/08/20 01:57:57;;;;;;;;;;;24.60;59.60;;;;;;1565791;74;1336;-56
2023/08/20 01:59:59;;;;;;;;;;;24.50;59.50;;;;;;1563629;74;1153;-57
2023/08/20 02:02:01;;;;;;;;;;;24.50;59.40;;;;;;1571668;74;689;-54
2023/08/20 02:04:03;;;;;;;;;;;24.50;59.20;;;;;;1565706;74;722;-54
2023/08/20 02:06:05;;;;;;;;;;;24.50;59.10;;;;;;1560566;74;827;-54
2023/08/20 02:08:07;;;;;;;;;;;24.50;59.20;;;;;;1566295;74;707;-57
2023/08/20 02:10:09;;;;;;;;;;;24.50;59.20;;;;;;1559429;74;1230;-57
2023/08/20 02:12:11;;;;;;;;;;;24.50;59.20;;;;;;1565706;74;1539;-57
2023/08/20 02:14:13;;;;;;;;;;;24.50;59.30;;;;;;1561688;74;1907;-56
2023/08/20 02:16:16;;;;;;;;;;;24.50;59.20;;;;;;1566851;74;767;-56
2023/08/20 02:18:18;;;;;;;;;;;24.50;59.20;;;;;;1562952;74;777;-54
2023/08/20 02:20:20;;;;;;;;;;;24.50;59.00;;;;;;1566974;74;1086;-56
2023/08/20 02:22:21;;;;;;;;;;;24.40;58.90;;;;;;1556327;74;717;-55
2023/08/20 02:24:23;;;;;;;;;;;24.40;58.90;;;;;;1567739;74;720;-56
2023/08/20 02:26:26;;;;;;;;;;;24.40;58.90;;;;;;1569324;74;1443;-55
2023/08/20 02:28:28;;;;;;;;;;;24.50;58.90;;;;;;1574287;74;957;-56
2023/08/20 02:30:29;;;;;;;;;;;24.40;58.90;;;;;;1564255;74;1155;-56
2023/08/20 02:32:33;;;;;;;;;;;24.50;58.90;;;;;;1571147;74;1063;-55
2023/08/20 02:34:35;;;;;;;;;;;24.40;58.70;;;;;;1559135;74;1922;-53
2023/08/20 02:36:37;;;;;;;;;;;24.50;58.80;;;;;;1559432;74;746;-56
2023/08/20 02:38:39;;;;;;;;;;;24.40;58.70;;;;;;1565420;74;725;-55
2023/08/20 02:40:41;;;;;;;;;;;24.40;58.70;;;;;;1566536;74;1639;-56
2023/08/20 02:42:43;;;;;;;;;;;24.40;58.60;;;;;;1564679;74;750;-56
2023/08/20 02:44:45;;;;;;;;;;;24.50;58.70;;;;;;1567509;74;763;-54
2023/08/20 02:46:47;;;;;;;;;;;24.50;58.70;;;;;;1560328;74;724;-56
2023/08/20 02:48:49;;;;;;;;;;;24.40;58.50;;;;;;1567068;74;1173;-53
2023/08/20 02:50:51;;;;;;;;;;;24.40;58.50;;;;;;1557680;74;732;-57
2023/08/20 02:52:52;;;;;;;;;;;24.40;58.40;;;;;;1558960;74;693;-56
2023/08/20 02:54:54;;;;;;;;;;;24.40;58.40;;;;;;1571051;74;1926;-54
2023/08/20 02:56:56;;;;;;;;;;;24.50;58.50;;;;;;1564045;74;754;-56
2023/08/20 02:58:58;;;;;;;;;;;24.50;58.40;;;;;;1567962;73;1160;-55
2023/08/20 03:01:00;;;;;;;;;;;24.40;58.40;;;;;;1565593;74;821;-56
2023/08/20 03:03:05;;;;;;;;;;;24.50;58.40;;;;;;1567163;74;705;-56
2023/08/20 03:05:06;;;;;;;;;;;24.40;58.30;;;;;;1567076;74;1673;-54
2023/08/20 03:07:07;;;;;;;;;;;24.40;58.20;;;;;;1563504;74;826;-56
2023/08/20 03:09:09;;;;;;;;;;;24.50;58.30;;;;;;1564767;74;1499;-53
2023/08/20 03:11:11;;;;;;;;;;;24.40;58.20;;;;;;1553955;74;771;-55
2023/08/20 03:13:14;;;;;;;;;;;24.50;58.30;;;;;;1561142;75;796;-55
2023/08/20 03:15:16;;;;;;;;;;;24.50;58.20;;;;;;1560626;74;1912;-57
2023/08/20 03:17:17;;;;;;;;;;;24.40;58.10;;;;;;1553457;75;746;-56
2023/08/20 03:19:19;;;;;;;;;;;24.40;58.00;;;;;;1556029;75;1169;-55
2023/08/20 03:21:21;;;;;;;;;;;24.50;58.10;;;;;;1553734;76;738;-54
2023/08/20 03:23:23;;;;;;;;;;;24.40;57.90;;;;;;1568114;74;1696;-57
2023/08/20 03:25:25;;;;;;;;;;;24.50;58.10;;;;;;1560012;75;674;-56
2023/08/20 03:27:27;;;;;;;;;;;24.50;58.00;;;;;;1571140;74;783;-57
2023/08/20 03:29:29;;;;;;;;;;;24.50;57.90;;;;;;1559460;75;1143;-55
2023/08/20 03:31:31;;;;;;;;;;;24.40;57.80;;;;;;1568365;74;722;-53
2023/08/20 03:33:33;;;;;;;;;;;24.40;57.80;;;;;;1570581;75;810;-55
2023/08/20 03:35:35;;;;;;;;;;;24.40;57.60;;;;;;1570415;75;1930;-55
2023/08/20 03:37:37;;;;;;;;;;;24.40;57.50;;;;;;1567681;74;1163;-57
2023/08/20 03:39:39;;;;;;;;;;;24.40;57.50;;;;;;1526664;76;1140;-56
2023/08/20 03:41:41;;;;;;;;;;;24.40;57.50;;;;;;1558962;75;779;-56
2023/08/20 03:43:43;;;;;;;;;;;24.40;57.50;;;;;;1559757;75;794;-54
2023/08/20 03:45:45;;;;;;;;;;;24.40;57.60;;;;;;1556302;75;722;-54
2023/08/20 03:47:47;;;;;;;;;;;24.40;57.40;;;;;;1549670;75;925;-55
2023/08/20 03:49:48;;;;;;;;;;;24.40;57.40;;;;;;1528759;76;1404;-54
2023/08/20 03:51:50;;;;;;;;;;;24.30;57.40;;;;;;1561336;74;761;-55
2023/08/20 03:53:52;;;;;;;;;;;24.30;57.40;;;;;;1570000;74;781;-57
2023/08/20 03:55:54;;;;;;;;;;;24.40;57.40;;;;;;1556268;75;1928;-57
2023/08/20 03:57:56;;;;;;;;;;;24.40;57.40;;;;;;1554040;75;694;-55
2023/08/20 03:59:58;;;;;;;;;;;24.30;57.30;;;;;;1567605;74;1145;-56
2023/08/20 04:02:00;;;;;;;;;;;24.40;57.30;;;;;;1572894;74;768;-55
2023/08/20 04:04:02;;;;;;;;;;;24.30;57.30;;;;;;1569197;74;1537;-54
2023/08/20 04:06:03;;;;;;;;;;;24.40;57.30;;;;;;1571863;74;731;-54
2023/08/20 04:08:06;;;;;;;;;;;24.40;57.30;;;;;;1559410;74;706;-56
2023/08/20 04:10:08;;;;;;;;;;;24.30;57.30;;;;;;1580834;74;1092;-56
2023/08/20 04:12:10;;;;;;;;;;;24.30;57.30;;;;;;1576246;74;728;-56
2023/08/20 04:14:12;;;;;;;;;;;24.30;57.30;;;;;;1561584;74;814;-53
2023/08/20 04:16:14;;;;;;;;;;;24.40;57.30;;;;;;1571708;74;2026;-54
2023/08/20 04:18:16;;;;;;;;;;;24.30;57.20;;;;;;1562603;74;1411;-56
2023/08/20 04:20:18;;;;;;;;;;;24.30;57.10;;;;;;1568678;74;1146;-55
2023/08/20 04:22:20;;;;;;;;;;;24.30;57.10;;;;;;1568903;74;788;-56
2023/08/20 04:24:21;;;;;;;;;;;24.30;57.10;;;;;;1566074;75;723;-55
2023/08/20 04:26:23;;;;;;;;;;;24.40;57.10;;;;;;1568459;74;663;-54
2023/08/20 04:28:25;;;;;;;;;;;24.40;57.10;;;;;;1564814;74;788;-53
2023/08/20 04:30:27;;;;;;;;;;;24.30;57.10;;;;;;1566611;74;1109;-56
2023/08/20 04:32:29;;;;;;;;;;;24.30;57.10;;;;;;1563826;74;1548;-56
2023/08/20 04:34:31;;;;;;;;;;;24.30;57.10;;;;;;1568260;74;1921;-54
2023/08/20 04:36:33;;;;;;;;;;;24.30;57.20;;;;;;1565977;74;730;-53
2023/08/20 04:38:34;;;;;;;;;;;24.30;57.10;;;;;;1559733;74;758;-56
2023/08/20 04:40:36;;;;;;;;;;;24.30;57.10;;;;;;1559446;74;1056;-54
2023/08/20 04:42:38;;;;;;;;;;;24.30;57.20;;;;;;1568705;75;765;-53
2023/08/20 04:44:40;;;;;;;;;;;24.30;57.20;;;;;;1566849;74;731;-56
2023/08/20 04:46:43;;;;;;;;;;;24.30;57.10;;;;;;1564106;74;1584;-55
2023/08/20 04:48:45;;;;;;;;;;;24.30;57.10;;;;;;1568569;74;739;-56
2023/08/20 04:50:47;;;;;;;;;;;24.30;57.10;;;;;;1561572;74;784;-55
2023/08/20 04:52:49;;;;;;;;;;;24.30;57.10;;;;;;1566949;74;728;-53
2023/08/20 04:54:51;;;;;;;;;;;24.30;57.10;;;;;;1561212;74;1931;-55
2023/08/20 04:56:53;;;;;;;;;;;24.30;57.10;;;;;;1571159;74;707;-55
2023/08/20 04:58:55;;;;;;;;;;;24.30;57.20;;;;;;1567763;74;1156;-56
2023/08/20 05:00:56;;;;;;;;;;;24.30;57.30;;;;;;1561021;74;1246;-56
2023/08/20 05:02:58;;;;;;;;;;;24.30;57.40;;;;;;1568515;74;677;-56
2023/08/20 05:05:00;;;;;;;;;;;24.30;57.40;;;;;;1567078;74;735;-55
2023/08/20 05:07:03;;;;;;;;;;;24.30;57.50;;;;;;1571038;74;730;-53
2023/08/20 05:09:05;;;;;;;;;;;24.30;57.60;;;;;;1557390;74;1145;-56
2023/08/20 05:11:07;;;;;;;;;;;24.30;57.60;;;;;;1569120;74;735;-54
2023/08/20 05:13:09;;;;;;;;;;;24.30;57.70;;;;;;1565619;74;743;-55
2023/08/20 05:15:11;;;;;;;;;;;24.30;57.80;;;;;;1567054;74;1924;-57
2023/08/20 05:17:12;;;;;;;;;;;24.30;57.90;;;;;;1560237;74;791;-56
2023/08/20 05:19:14;;;;;;;;;;;24.30;57.90;;;;;;1546199;75;1137;-53
2023/08/20 05:21:16;;;;;;;;;;;24.30;58.00;;;;;;1568315;74;649;-55
2023/08/20 05:23:18;;;;;;;;;;;24.40;58.10;;;;;;1555878;74;670;-57
2023/08/20 05:25:20;;;;;;;;;;;24.30;58.30;;;;;;1555443;74;762;-56
2023/08/20 05:27:22;;;;;;;;;;;24.40;58.40;;;;;;1559832;74;993;-55
2023/08/20 05:29:24;;;;;;;;;;;24.40;59.10;;;;;;1557956;74;1555;-54
2023/08/20 05:31:25;;;;;;;;;;;24.50;59.00;;;;;;1568802;74;751;-55
2023/08/20 05:33:27;;;;;;;;;;;24.50;59.20;;;;;;1571937;74;761;-57
2023/08/20 05:35:29;;;;;;;;;;;24.60;59.30;;;;;;1566987;74;1923;-56
2023/08/20 05:37:31;;;;;;;;;;;24.50;59.60;;;;;;1570736;74;704;-56
2023/08/20 05:39:40;;;;;;;;;;;24.60;59.90;;;;;;1566686;74;1141;-55
2023/08/20 05:41:42;;;;;;;;;;;24.60;59.90;;;;;;1573381;74;1792;-57
2023/08/20 05:43:44;;;;;;;;;;;24.60;60.00;;;;;;1568136;74;1584;-57
2023/08/20 05:45:46;;;;;;;;;;;24.60;60.10;;;;;;1561005;74;823;-56
2023/08/20 05:47:48;;;;;;;;;;;24.70;60.00;;;;;;1570787;74;819;-56
2023/08/20 05:49:50;;;;;;;;;;;24.70;59.70;;;;;;1565454;74;1143;-56
2023/08/20 05:51:52;;;;;;;;;;;24.70;59.70;;;;;;1562907;74;673;-56
2023/08/20 05:53:54;;;;;;;;;;;24.70;59.70;;;;;;1571400;74;675;-54
2023/08/20 05:55:55;;;;;;;;;;;24.80;59.40;;;;;;1570642;74;1933;-56
2023/08/20 05:57:57;;;;;;;;;;;24.80;59.30;;;;;;1556085;75;1600;-55
2023/08/20 05:59:59;;;;;;;;;;;24.80;58.90;;;;;;1568536;74;1176;-57
2023/08/20 06:02:01;;;;;;;;;;;24.90;58.80;;;;;;1569268;75;808;-54
2023/08/20 06:04:04;;;;;;;;;;;24.90;58.60;;;;;;1565176;74;752;-54
2023/08/20 06:06:05;;;;;;;;;;;25.10;58.40;;;;;;1560507;74;912;-55
2023/08/20 06:08:07;;;;;;;;;;;25.10;58.10;;;;;;1573373;74;741;-55
2023/08/20 06:10:09;;;;;;;;;;;25.10;58.10;;;;;;1561746;75;1125;-56
2023/08/20 06:12:11;;;;;;;;;;;25.10;57.90;;;;;;1570236;74;1622;-56
2023/08/20 06:14:13;;;;;;;;;;;25.20;57.80;;;;;;1562697;74;699;-55
2023/08/20 06:16:15;;;;;;;;;;;25.20;57.60;;;;;;1564915;74;1927;-52
2023/08/20 06:18:17;;;;;;;;;;;25.30;57.20;;;;;;1562196;74;759;-54
2023/08/20 06:20:19;;;;;;;;;;;25.30;56.80;;;;;;1563600;74;1134;-54
2023/08/20 06:22:21;;;;;;;;;;;25.30;56.60;;;;;;1561720;75;719;-56
2023/08/20 06:24:22;;;;;;;;;;;25.40;56.50;;;;;;1566748;74;1098;-55
2023/08/20 06:26:24;;;;;;;;;;;25.50;56.20;;;;;;1568989;74;1677;-56
2023/08/20 06:28:26;;;;;;;;;;;25.50;56.00;;;;;;1570595;74;808;-53
2023/08/20 06:30:28;;;;;;;;;;;25.50;55.90;;;;;;1567251;74;1061;-56
2023/08/20 06:32:30;;;;;;;;;;;25.50;55.70;;;;;;1561667;74;730;-57
2023/08/20 06:34:34;;;;;;;;;;;25.60;55.50;;;;;;1567798;74;675;-56
2023/08/20 06:36:36;;;;;;;;;;;25.60;55.30;;;;;;1570237;74;1911;-56
2023/08/20 06:38:38;;;;;;;;;;;25.70;55.20;;;;;;1564299;75;1560;-53
2023/08/20 06:40:39;;;;;;;;;;;25.60;55.00;;;;;;1569935;74;1103;-54
2023/08/20 06:42:41;;;;;;;;;;;25.60;55.00;;;;;;1569250;74;764;-55
2023/08/20 06:44:43;;;;;;;;;;;25.70;54.90;;;;;;1551587;75;749;-53
2023/08/20 06:46:45;;;;;;;;;;;25.70;54.80;;;;;;1545948;75;816;-57
2023/08/20 06:48:47;;;;;;;;;;;25.80;55.00;;;;;;1558329;74;1130;-57
2023/08/20 06:50:49;;;;;;;;;;;25.70;54.80;;;;;;1565083;74;759;-54
2023/08/20 06:52:51;;;;;;;;;;;25.70;54.70;;;;;;1563568;75;1561;-55
2023/08/20 06:54:53;;;;;;;;;;;25.80;54.70;;;;;;1558041;74;768;-56
2023/08/20 06:56:54;;;;;;;;;;;25.80;54.60;;;;;;1564480;74;1942;-56
2023/08/20 06:58:56;;;;;;;;;;;25.80;54.70;;;;;;1559194;75;1165;-54
2023/08/20 07:01:06;;;;;;;;;;;25.80;54.50;;;;;;1569164;74;731;-57
2023/08/20 07:03:03;;;;;;;;;;;25.80;54.40;;;;;;1563402;74;1673;-56
2023/08/20 07:05:05;;;;;;;;;;;25.80;54.30;;;;;;1553932;74;716;-54
2023/08/20 07:07:07;;;;;;;;;;;25.80;54.30;;;;;;1558323;74;1530;-56
2023/08/20 07:09:09;;;;;;;;;;;25.80;54.40;;;;;;1570653;74;1124;-57
2023/08/20 07:11:11;;;;;;;;;;;25.80;54.60;;;;;;1563375;74;744;-54
2023/08/20 07:13:13;;;;;;;;;;;25.80;54.60;;;;;;1556291;74;758;-57
2023/08/20 07:15:15;;;;;;;;;;;25.80;54.60;;;;;;1564542;74;757;-57
2023/08/20 07:17:17;;;;;;;;;;;25.70;54.60;;;;;;1543234;75;1942;-56
2023/08/20 07:19:19;;;;;;;;;;;25.80;54.60;;;;;;1530730;76;1168;-56
2023/08/20 07:21:21;;;;;;;;;;;25.70;54.70;;;;;;1564403;74;1450;-56
2023/08/20 07:23:22;;;;;;;;;;;25.70;54.70;;;;;;1570866;74;651;-54
2023/08/20 07:25:24;;;;;;;;;;;25.70;54.80;;;;;;1562563;74;750;-53
2023/08/20 07:27:26;;;;;;;;;;;25.60;54.90;;;;;;1570844;74;684;-56
2023/08/20 07:29:30;;;;;;;;;;;25.60;54.90;;;;;;1562619;74;1140;-57
2023/08/20 07:31:33;;;;;;;;;;;25.60;54.80;;;;;;1561015;75;713;-57
2023/08/20 07:33:35;;;;;;;;;;;25.60;54.90;;;;;;1567715;74;747;-55
2023/08/20 07:35:36;;;;;;;;;;;25.60;55.00;;;;;;1560739;74;1941;-56
2023/08/20 07:37:38;;;;;;;;;;;25.60;54.90;;;;;;1561200;74;763;-57
2023/08/20 07:39:40;;;;;;;;;;;25.60;54.90;;;;;;1568744;74;1113;-56
2023/08/20 07:41:42;;;;;;;;;;;25.60;54.80;;;;;;1573636;74;651;-56
2023/08/20 07:43:44;;;;;;;;;;;25.70;55.00;;;;;;1563118;74;676;-54
2023/08/20 07:45:46;;;;;;;;;;;25.60;55.20;;;;;;1560772;74;730;-54
2023/08/20 07:47:48;;;;;;;;;;;25.60;55.20;;;;;;1570311;74;822;-56
2023/08/20 07:49:50;;;;;;;;;;;25.60;55.20;;;;;;1569724;74;1643;-55
2023/08/20 07:51:52;;;;;;;;;;;25.70;55.10;;;;;;1559982;74;658;-57
2023/08/20 07:53:54;;;;;;;;;;;25.60;55.40;;;;;;1565203;74;795;-55
2023/08/20 07:55:56;;;;;;;;;;;25.60;55.40;;;;;;1571935;74;1914;-56
2023/08/20 07:57:58;;;;;;;;;;;25.60;55.40;;;;;;1564988;74;719;-54
2023/08/20 08:00:00;;;;;;;;;;;25.60;55.50;;;;;;1554667;73;1132;-55
2023/08/20 08:02:02;;;;;;;;;;;25.60;56.30;;;;;;1525343;76;1080;-56
2023/08/20 08:04:04;;;;;;;;;;;25.70;56.60;;;;;;1559861;75;1505;-55
2023/08/20 08:06:06;;;;;;;;;;;25.60;56.10;;;;;;1565325;75;695;-54
2023/08/20 08:08:08;;;;;;;;;;;25.70;56.60;;;;;;1561373;75;690;-55
2023/08/20 08:10:09;;;;;;;;;;;25.60;56.10;;;;;;1559256;75;1129;-55
2023/08/20 08:12:12;;;;;;;;;;;25.70;56.30;;;;;;1552976;75;752;-56
2023/08/20 08:14:13;;;;;;;;;;;25.70;56.50;;;;;;1549347;75;748;-54
2023/08/20 08:16:16;;;;;;;;;;;25.60;56.60;;;;;;1559380;75;1933;-55
2023/08/20 08:18:19;;;;;;;;;;;25.60;56.70;;;;;;1548406;75;1514;-54
2023/08/20 08:20:22;;;;;;;;;;;25.60;56.70;;;;;;1557477;75;1259;-55
2023/08/20 08:22:24;;;;;;;;;;;25.60;56.80;;;;;;1561423;75;713;-56
2023/08/20 08:24:26;;;;;;;;;;;25.60;57.00;;;;;;1560386;75;715;-54
2023/08/20 08:26:28;;;;;;;;;;;25.60;57.10;;;;;;1556827;75;727;-54
2023/08/20 08:28:30;;;;;;;;;;;25.60;57.10;;;;;;1558015;75;735;-57
2023/08/20 08:30:32;;;;;;;;;;;25.60;57.10;;;;;;1548739;75;1102;-56
2023/08/20 08:32:34;;;;;;;;;;;25.60;57.20;;;;;;1550010;75;1537;-55
2023/08/20 08:34:35;;;;;;;;;;;25.60;57.10;;;;;;1550547;75;743;-56
2023/08/20 08:36:37;;;;;;;;;;;25.60;57.20;;;;;;1557157;75;1931;-56
2023/08/20 08:38:39;;;;;;;;;;;25.60;57.10;;;;;;1556539;75;659;-56
2023/08/20 08:40:41;;;;;;;;;;;25.50;56.90;;;;;;1552467;75;1097;-56
2023/08/20 08:42:43;;;;;;;;;;;25.60;57.20;;;;;;1557020;76;793;-56
2023/08/20 08:44:45;;;;;;;;;;;25.60;57.00;;;;;;1560311;75;708;-55
2023/08/20 08:46:47;;;;;;;;;;;25.50;56.90;;;;;;1553424;75;1503;-54
2023/08/20 08:48:48;;;;;;;;;;;25.60;56.80;;;;;;1549855;75;1122;-54
2023/08/20 08:50:50;;;;;;;;;;;25.60;56.80;;;;;;1554678;75;733;-56
2023/08/20 08:52:52;;;;;;;;;;;25.60;56.80;;;;;;1546976;76;717;-57
2023/08/20 08:54:54;;;;;;;;;;;25.50;56.80;;;;;;1557565;75;758;-57
2023/08/20 08:56:56;;;;;;;;;;;25.50;56.70;;;;;;1560060;75;1931;-55
2023/08/20 08:58:58;;;;;;;;;;;25.50;56.80;;;;;;1548303;76;1189;-56
2023/08/20 09:01:00;;;;;;;;;;;25.50;56.70;;;;;;1563051;75;1647;-56
2023/08/20 09:03:02;;;;;;;;;;;25.50;56.70;;;;;;1551883;75;803;-56
2023/08/20 09:05:06;;;;;;;;;;;25.60;56.80;;;;;;1565429;74;760;-54
2023/08/20 09:07:14;;;;;;;;;;;25.50;56.80;;;;;;1552980;74;760;-55
2023/08/20 09:09:16;;;;;;;;;;;25.50;56.70;;;;;;1567466;74;1162;-57
2023/08/20 09:11:18;;;;;;;;;;;25.60;56.50;;;;;;1562490;75;721;-54
2023/08/20 09:13:24;;;;;;;;;;;25.50;56.60;;;;;;1570401;74;1534;-54
2023/08/20 09:15:28;;;;;;;;;;;25.50;56.50;;;;;;1558490;74;736;-55
2023/08/20 09:17:30;;;;;;;;;;;25.60;56.50;;;;;;1559239;74;1942;-57
2023/08/20 09:19:34;;;;;;;;;;;25.60;56.50;;;;;;1571645;75;1121;-56
2023/08/20 09:21:36;;;;;;;;;;;25.60;56.50;;;;;;1558305;74;975;-55
2023/08/20 09:23:38;;;;;;;;;;;25.60;56.40;;;;;;1568263;74;691;-56
2023/08/20 09:25:40;;;;;;;;;;;25.60;56.50;;;;;;1546546;75;713;-55
2023/08/20 09:27:42;;;;;;;;;;;25.50;56.50;;;;;;1568967;74;1535;-53
2023/08/20 09:29:45;;;;;;;;;;;25.50;56.30;;;;;;1569329;75;1102;-57
2023/08/20 09:31:47;;;;;;;;;;;25.50;56.30;;;;;;1554728;75;2119;-56
2023/08/20 09:33:51;;;;;;;;;;;25.50;56.20;;;;;;1568567;75;724;-56
2023/08/20 09:35:56;;;;;;;;;;;25.50;56.20;;;;;;1565019;74;1793;-56
2023/08/20 09:38:02;;;;;;;;;;;25.50;56.20;;;;;;1565993;74;1915;-56
2023/08/20 09:40:05;;;;;;;;;;;25.50;56.20;;;;;;1569536;75;1075;-56
2023/08/20 09:42:07;;;;;;;;;;;25.50;56.20;;;;;;1559953;74;1561;-57
2023/08/20 09:44:08;;;;;;;;;;;25.50;56.30;;;;;;1572169;74;780;-57
2023/08/20 09:46:10;;;;;;;;;;;25.50;56.20;;;;;;1559166;74;759;-57
2023/08/20 09:48:12;;;;;;;;;;;25.50;56.30;;;;;;1554402;75;759;-57
2023/08/20 09:50:14;;;;;;;;;;;25.50;56.30;;;;;;1566313;75;1149;-56
2023/08/20 09:52:18;;;;;;;;;;;25.50;56.30;;;;;;1571373;75;720;-56
2023/08/20 09:54:24;;;;;;;;;;;25.50;56.20;;;;;;1559813;74;1762;-56
2023/08/20 09:56:30;;;;;;;;;;;25.50;56.20;;;;;;1565947;74;1930;-54
2023/08/20 09:58:31;;;;;;;;;;;25.50;56.20;;;;;;1559054;74;753;-55
2023/08/20 10:00:33;;;;;;;;;;;25.50;56.20;;;;;;1564911;75;1199;-55
2023/08/20 10:02:35;;;;;;;;;;;25.50;56.10;;;;;;1556961;74;704;-55
2023/08/20 10:04:37;;;;;;;;;;;25.50;56.10;;;;;;1567496;74;699;-56
2023/08/20 10:06:40;;;;;;;;;;;25.50;56.10;;;;;;1564261;74;687;-56
2023/08/20 10:08:41;;;;;;;;;;;25.50;56.10;;;;;;1562355;75;745;-57
2023/08/20 10:10:43;;;;;;;;;;;25.50;56.10;;;;;;1553805;76;1612;-57
2023/08/20 10:12:45;;;;;;;;;;;25.50;56.10;;;;;;1569529;74;797;-54
2023/08/20 10:14:47;;;;;;;;;;;25.50;56.00;;;;;;1566504;74;726;-55
2023/08/20 10:16:49;;;;;;;;;;;25.50;56.10;;;;;;1567738;74;1940;-57
2023/08/20 10:18:51;;;;;;;;;;;25.50;56.00;;;;;;1568599;74;1144;-56
2023/08/20 10:20:53;;;;;;;;;;;25.50;56.00;;;;;;1563259;74;807;-56
2023/08/20 10:22:55;;;;;;;;;;;25.50;56.00;;;;;;1569793;74;691;-56
2023/08/20 10:24:57;;;;;;;;;;;25.50;56.10;;;;;;1542261;75;1392;-55
2023/08/20 10:27:10;;;;;;;;;;;25.50;56.00;;;;;;1571772;75;717;-57
2023/08/20 10:29:30;;;;;;;;;;;25.50;56.10;;;;;;1569197;75;1585;-55
2023/08/20 10:31:32;;;;;;;;;;;25.50;56.10;;;;;;1560357;74;748;-56
2023/08/20 10:33:36;;;;;;;;;;;25.50;56.10;;;;;;1580252;74;748;-56
2023/08/20 10:35:42;;;;;;;;;;;25.50;56.10;;;;;;1558545;74;1789;-54
2023/08/20 10:38:02;;;;;;;;;;;25.50;56.10;;;;;;1571579;74;1947;-56
2023/08/20 10:40:05;;;;;;;;;;;25.50;56.20;;;;;;1563574;75;1152;-56
2023/08/20 10:42:11;;;;;;;;;;;25.50;56.10;;;;;;1566349;74;939;-57
2023/08/20 10:44:13;;;;;;;;;;;25.50;56.20;;;;;;1569436;74;835;-56
2023/08/20 10:46:18;;;;;;;;;;;25.50;56.20;;;;;;1550435;75;1352;-57
2023/08/20 10:48:20;;;;;;;;;;;25.50;56.30;;;;;;1567502;74;722;-54
2023/08/20 10:50:22;;;;;;;;;;;25.50;56.10;;;;;;1568122;74;1135;-57
2023/08/20 10:52:24;;;;;;;;;;;25.50;56.10;;;;;;1566549;74;1300;-54
2023/08/20 10:54:25;;;;;;;;;;;25.50;56.30;;;;;;1571795;74;669;-56
2023/08/20 10:56:46;;;;;;;;;;;25.50;56.20;;;;;;1567690;74;710;-56
2023/08/20 10:58:48;;;;;;;;;;;25.50;56.30;;;;;;1566927;74;1176;-56
2023/08/20 11:00:51;;;;;;;;;;;25.50;56.20;;;;;;1564646;74;789;-54
2023/08/20 11:02:53;;;;;;;;;;;25.50;56.30;;;;;;1568556;74;1695;-53
2023/08/20 11:04:55;;;;;;;;;;;25.50;56.10;;;;;;1564668;74;785;-55
2023/08/20 11:06:57;;;;;;;;;;;25.50;56.00;;;;;;1547474;74;1526;-56
2023/08/20 11:08:59;;;;;;;;;;;25.50;56.00;;;;;;1564074;75;1138;-54
2023/08/20 11:11:02;;;;;;;;;;;25.20;56.10;;;;;;1566576;74;781;-57
2023/08/20 11:13:05;;;;;;;;;;;25.50;56.20;;;;;;1566730;74;789;-56
2023/08/20 11:15:08;;;;;;;;;;;25.50;55.90;;;;;;1565090;74;723;-56
2023/08/20 11:17:10;;;;;;;;;;;25.50;56.00;;;;;;1571103;74;1926;-57
2023/08/20 11:19:12;;;;;;;;;;;25.50;55.90;;;;;;1562937;74;1118;-55
2023/08/20 11:21:14;;;;;;;;;;;25.50;55.70;;;;;;1556693;74;1425;-57
2023/08/20 11:23:16;;;;;;;;;;;25.40;56.00;;;;;;1577725;74;720;-57
2023/08/20 11:25:18;;;;;;;;;;;25.50;56.10;;;;;;1562787;75;795;-55
2023/08/20 11:27:22;;;;;;;;;;;25.50;56.10;;;;;;1560638;74;777;-54
2023/08/20 11:29:25;;;;;;;;;;;25.50;55.60;;;;;;1562522;74;1169;-53
2023/08/20 11:31:27;;;;;;;;;;;25.40;55.50;;;;;;1570220;74;707;-54
2023/08/20 11:33:29;;;;;;;;;;;25.40;55.70;;;;;;1567955;74;764;-54
2023/08/20 11:35:31;;;;;;;;;;;25.50;56.00;;;;;;1559050;74;1433;-54
2023/08/20 11:37:33;;;;;;;;;;;25.50;56.00;;;;;;1571335;74;1926;-55
2023/08/20 11:39:37;;;;;;;;;;;25.50;55.90;;;;;;1569646;74;1195;-56
2023/08/20 11:41:39;;;;;;;;;;;25.40;55.60;;;;;;1562775;74;781;-56
2023/08/20 11:43:41;;;;;;;;;;;25.50;55.70;;;;;;1561772;74;745;-56
2023/08/20 11:45:47;;;;;;;;;;;25.40;55.70;;;;;;1561487;74;699;-56
2023/08/20 11:47:49;;;;;;;;;;;25.50;55.70;;;;;;1551243;75;795;-56
2023/08/20 11:49:52;;;;;;;;;;;25.50;55.80;;;;;;1562510;75;1693;-56
2023/08/20 11:51:56;;;;;;;;;;;25.50;55.50;;;;;;1559378;74;1725;-56
2023/08/20 11:53:58;;;;;;;;;;;25.50;55.50;;;;;;1564647;75;721;-56
2023/08/20 11:56:00;;;;;;;;;;;25.40;55.70;;;;;;1552229;75;620;-56
2023/08/20 11:58:01;;;;;;;;;;;25.50;55.60;;;;;;1561850;74;1941;-54
2023/08/20 12:00:12;;;;;;;;;;;25.50;55.50;;;;;;1552193;74;1165;-54
2023/08/20 12:02:13;;;;;;;;;;;25.50;55.40;;;;;;1562152;74;1770;-56
2023/08/20 12:04:15;;;;;;;;;;;25.40;55.10;;;;;;1571189;74;780;-55
2023/08/20 12:06:18;;;;;;;;;;;25.50;55.30;;;;;;1557855;74;743;-56
2023/08/20 12:08:20;;;;;;;;;;;25.50;55.30;;;;;;1560010;74;661;-54
2023/08/20 12:10:22;;;;;;;;;;;25.50;55.10;;;;;;1566852;74;1173;-57